sensor_id;sensor_type;location;lat;lon;timestamp;pressure;altitude;pressure_sealevel;temperature
79172;BMP280;68597;53.238;-1.418;2023-03-31T00:00:27;98454.59;;;11.92
79172;BMP280;68597;53.238;-1.418;2023-03-31T00:02:53;98443.56;;;11.94
79172;BMP280;68597;53.238;-1.418;2023-03-31T00:05:18;98437.84;;;11.92
79172;BMP280;68597;53.238;-1.418;2023-03-31T00:07:44;98441.22;;;11.91
79172;BMP280;68597;53.238;-1.418;2023-03-31T00:10:11;98429.16;;;11.88
79172;BMP280;68597;53.238;-1.418;2023-03-31T00:12:36;98405.94;;;11.76
79172;BMP280;68597;53.238;-1.418;2023-03-31T00:15:02;98411.78;;;11.80
79172;BMP280;68597;53.238;-1.418;2023-03-31T00:17:28;98395.03;;;11.80
79172;BMP280;68597;53.238;-1.418;2023-03-31T00:19:53;98392.38;;;11.82
79172;BMP280;68597;53.238;-1.418;2023-03-31T00:22:19;98386.78;;;11.82
79172;BMP280;68597;53.238;-1.418;2023-03-31T00:24:44;98374.72;;;11.80
79172;BMP280;68597;53.238;-1.418;2023-03-31T00:27:11;98375.44;;;11.80
79172;BMP280;68597;53.238;-1.418;2023-03-31T00:29:37;98355.19;;;11.70
79172;BMP280;68597;53.238;-1.418;2023-03-31T00:32:02;98355.63;;;11.76
79172;BMP280;68597;53.238;-1.418;2023-03-31T00:34:28;98353.56;;;11.77
79172;BMP280;68597;53.238;-1.418;2023-03-31T00:36:54;98341.47;;;11.74
79172;BMP280;68597;53.238;-1.418;2023-03-31T00:39:19;98334.16;;;11.69
79172;BMP280;68597;53.238;-1.418;2023-03-31T00:41:45;98330.63;;;11.69
79172;BMP280;68597;53.238;-1.418;2023-03-31T00:44:14;98329.72;;;11.66
79172;BMP280;68597;53.238;-1.418;2023-03-31T00:46:44;98319.75;;;11.63
79172;BMP280;68597;53.238;-1.418;2023-03-31T00:49:15;98324.03;;;11.64
79172;BMP280;68597;53.238;-1.418;2023-03-31T00:51:42;98314.16;;;11.63
79172;BMP280;68597;53.238;-1.418;2023-03-31T00:54:08;98313.88;;;11.59
79172;BMP280;68597;53.238;-1.418;2023-03-31T00:56:37;98303.91;;;11.56
79172;BMP280;68597;53.238;-1.418;2023-03-31T00:59:06;98298.31;;;11.56
79172;BMP280;68597;53.238;-1.418;2023-03-31T01:01:35;98292.16;;;11.48
79172;BMP280;68597;53.238;-1.418;2023-03-31T01:04:02;98289.38;;;11.48
79172;BMP280;68597;53.238;-1.418;2023-03-31T01:06:28;98275.41;;;11.48
79172;BMP280;68597;53.238;-1.418;2023-03-31T01:08:53;98273.94;;;11.47
79172;BMP280;68597;53.238;-1.418;2023-03-31T01:11:22;98266.13;;;11.45
79172;BMP280;68597;53.238;-1.418;2023-03-31T01:13:50;98256.41;;;11.46
79172;BMP280;68597;53.238;-1.418;2023-03-31T01:16:17;98238.91;;;11.46
79172;BMP280;68597;53.238;-1.418;2023-03-31T01:18:44;98227.75;;;11.46
79172;BMP280;68597;53.238;-1.418;2023-03-31T01:27:42;98197.16;;;11.48
79172;BMP280;68597;53.238;-1.418;2023-03-31T01:30:44;98194.47;;;11.50
79172;BMP280;68597;53.238;-1.418;2023-03-31T01:36:54;98152.41;;;11.27
79172;BMP280;68597;53.238;-1.418;2023-03-31T01:39:58;98166.53;;;11.50
79172;BMP280;68597;53.238;-1.418;2023-03-31T01:42:34;98162.41;;;11.51
79172;BMP280;68597;53.238;-1.418;2023-03-31T01:45:08;98155.66;;;11.54
79172;BMP280;68597;53.238;-1.418;2023-03-31T01:47:39;98141.69;;;11.54
79172;BMP280;68597;53.238;-1.418;2023-03-31T01:50:07;98136.22;;;11.56
79172;BMP280;68597;53.238;-1.418;2023-03-31T01:52:40;98136.22;;;11.56
79172;BMP280;68597;53.238;-1.418;2023-03-31T01:55:15;98123.56;;;11.55
79172;BMP280;68597;53.238;-1.418;2023-03-31T01:57:46;98119.31;;;11.54
79172;BMP280;68597;53.238;-1.418;2023-03-31T02:00:15;98107.53;;;11.56
79172;BMP280;68597;53.238;-1.418;2023-03-31T02:02:44;98108.28;;;11.56
79172;BMP280;68597;53.238;-1.418;2023-03-31T02:05:12;98094.88;;;11.55
79172;BMP280;68597;53.238;-1.418;2023-03-31T02:07:42;98085.66;;;11.52
79172;BMP280;68597;53.238;-1.418;2023-03-31T02:10:12;98077.41;;;11.54
79172;BMP280;68597;53.238;-1.418;2023-03-31T02:12:41;98063.44;;;11.54
79172;BMP280;68597;53.238;-1.418;2023-03-31T02:15:10;98061.97;;;11.53
79172;BMP280;68597;53.238;-1.418;2023-03-31T02:17:39;98045.53;;;11.47
79172;BMP280;68597;53.238;-1.418;2023-03-31T02:20:09;98046.53;;;11.52
79172;BMP280;68597;53.238;-1.418;2023-03-31T02:22:38;98033.88;;;11.51
79172;BMP280;68597;53.238;-1.418;2023-03-31T02:25:11;98024.91;;;11.52
79172;BMP280;68597;53.238;-1.418;2023-03-31T02:27:39;98014.47;;;11.53
79172;BMP280;68597;53.238;-1.418;2023-03-31T02:30:08;97999.16;;;11.54
79172;BMP280;68597;53.238;-1.418;2023-03-31T02:32:36;97999.16;;;11.54
79172;BMP280;68597;53.238;-1.418;2023-03-31T02:35:03;97982.41;;;11.54
79172;BMP280;68597;53.238;-1.418;2023-03-31T02:37:29;97983.84;;;11.55
79172;BMP280;68597;53.238;-1.418;2023-03-31T02:39:56;97978.25;;;11.55
79172;BMP280;68597;53.238;-1.418;2023-03-31T02:42:24;97968.56;;;11.56
79172;BMP280;68597;53.238;-1.418;2023-03-31T02:44:50;97966.63;;;11.59
79172;BMP280;68597;53.238;-1.418;2023-03-31T02:47:18;97954.69;;;11.58
79172;BMP280;68597;53.238;-1.418;2023-03-31T02:49:47;97953.38;;;11.59
79172;BMP280;68597;53.238;-1.418;2023-03-31T02:52:33;97940.59;;;11.56
79172;BMP280;68597;53.238;-1.418;2023-03-31T02:55:22;97936.47;;;11.57
79172;BMP280;68597;53.238;-1.418;2023-03-31T03:01:17;97930.88;;;11.57
79172;BMP280;68597;53.238;-1.418;2023-03-31T03:03:57;97909.00;;;11.42
79172;BMP280;68597;53.238;-1.418;2023-03-31T03:06:35;97915.06;;;11.50
79172;BMP280;68597;53.238;-1.418;2023-03-31T03:09:21;97911.44;;;11.47
79172;BMP280;68597;53.238;-1.418;2023-03-31T03:11:55;97904.81;;;11.43
79172;BMP280;68597;53.238;-1.418;2023-03-31T03:14:29;97889.28;;;11.40
79172;BMP280;68597;53.238;-1.418;2023-03-31T03:17:01;97889.28;;;11.40
79172;BMP280;68597;53.238;-1.418;2023-03-31T03:19:28;97885.91;;;11.41
79172;BMP280;68597;53.238;-1.418;2023-03-31T03:21:53;97861.34;;;11.40
79172;BMP280;68597;53.238;-1.418;2023-03-31T03:24:19;97858.41;;;11.38
79172;BMP280;68597;53.238;-1.418;2023-03-31T03:26:45;97835.59;;;11.30
79172;BMP280;68597;53.238;-1.418;2023-03-31T03:29:10;97824.16;;;11.26
79172;BMP280;68597;53.238;-1.418;2023-03-31T03:31:36;97831.22;;;11.38
79172;BMP280;68597;53.238;-1.418;2023-03-31T03:34:03;97836.06;;;11.38
79172;BMP280;68597;53.238;-1.418;2023-03-31T03:36:28;97790.88;;;11.18
79172;BMP280;68597;53.238;-1.418;2023-03-31T03:38:54;97811.66;;;11.38
79172;BMP280;68597;53.238;-1.418;2023-03-31T03:41:19;97810.94;;;11.38
79172;BMP280;68597;53.238;-1.418;2023-03-31T03:43:45;97806.81;;;11.39
79172;BMP280;68597;53.238;-1.418;2023-03-31T03:46:10;97804.03;;;11.39
79172;BMP280;68597;53.238;-1.418;2023-03-31T03:48:36;97780.94;;;11.38
79172;BMP280;68597;53.238;-1.418;2023-03-31T03:51:02;97774.63;;;11.38
79172;BMP280;68597;53.238;-1.418;2023-03-31T03:53:28;97770.50;;;11.39
79172;BMP280;68597;53.238;-1.418;2023-03-31T03:55:54;97754.69;;;11.32
79172;BMP280;68597;53.238;-1.418;2023-03-31T03:58:19;97762.25;;;11.41
79172;BMP280;68597;53.238;-1.418;2023-03-31T04:00:45;97750.94;;;11.39
79172;BMP280;68597;53.238;-1.418;2023-03-31T04:03:11;97744.03;;;11.40
79172;BMP280;68597;53.238;-1.418;2023-03-31T04:05:36;97725.81;;;11.39
79172;BMP280;68597;53.238;-1.418;2023-03-31T04:08:04;97735.50;;;11.38
79172;BMP280;68597;53.238;-1.418;2023-03-31T04:10:29;97724.34;;;11.38
79172;BMP280;68597;53.238;-1.418;2023-03-31T04:12:55;97720.22;;;11.39
79172;BMP280;68597;53.238;-1.418;2023-03-31T04:15:20;97720.94;;;11.39
79172;BMP280;68597;53.238;-1.418;2023-03-31T04:17:46;97682.69;;;11.19
79172;BMP280;68597;53.238;-1.418;2023-03-31T04:20:11;97694.94;;;11.25
79172;BMP280;68597;53.238;-1.418;2023-03-31T04:22:37;97696.88;;;11.34
79172;BMP280;68597;53.238;-1.418;2023-03-31T04:25:06;97701.25;;;11.37
79172;BMP280;68597;53.238;-1.418;2023-03-31T04:27:32;97696.28;;;11.36
79172;BMP280;68597;53.238;-1.418;2023-03-31T04:29:57;97690.09;;;11.37
79172;BMP280;68597;53.238;-1.418;2023-03-31T04:32:23;97682.34;;;11.36
79172;BMP280;68597;53.238;-1.418;2023-03-31T04:34:49;97677.59;;;11.27
79172;BMP280;68597;53.238;-1.418;2023-03-31T04:37:14;97687.28;;;11.37
79172;BMP280;68597;53.238;-1.418;2023-03-31T04:39:40;97672.38;;;11.33
79172;BMP280;68597;53.238;-1.418;2023-03-31T04:42:07;97681.13;;;11.39
79172;BMP280;68597;53.238;-1.418;2023-03-31T04:44:32;97663.38;;;11.34
79172;BMP280;68597;53.238;-1.418;2023-03-31T04:46:58;97670.66;;;11.39
79172;BMP280;68597;53.238;-1.418;2023-03-31T04:49:23;97664.34;;;11.39
79172;BMP280;68597;53.238;-1.418;2023-03-31T04:51:49;97663.16;;;11.42
79172;BMP280;68597;53.238;-1.418;2023-03-31T04:54:14;97657.31;;;11.38
79172;BMP280;68597;53.238;-1.418;2023-03-31T04:56:40;97654.88;;;11.44
79172;BMP280;68597;53.238;-1.418;2023-03-31T04:59:07;97650.75;;;11.45
79172;BMP280;68597;53.238;-1.418;2023-03-31T05:01:33;97649.28;;;11.44
79172;BMP280;68597;53.238;-1.418;2023-03-31T05:03:58;97633.28;;;11.33
79172;BMP280;68597;53.238;-1.418;2023-03-31T05:06:24;97618.94;;;11.27
79172;BMP280;68597;53.238;-1.418;2023-03-31T05:08:50;97633.97;;;11.45
79172;BMP280;68597;53.238;-1.418;2023-03-31T05:11:15;97636.19;;;11.46
79172;BMP280;68597;53.238;-1.418;2023-03-31T05:13:40;97621.47;;;11.46
79172;BMP280;68597;53.238;-1.418;2023-03-31T05:16:09;97631.31;;;11.47
79172;BMP280;68597;53.238;-1.418;2023-03-31T05:18:35;97624.50;;;11.50
79172;BMP280;68597;53.238;-1.418;2023-03-31T05:21:09;97618.91;;;11.50
79172;BMP280;68597;53.238;-1.418;2023-03-31T05:23:34;97624.50;;;11.50
79172;BMP280;68597;53.238;-1.418;2023-03-31T05:26:00;97610.44;;;11.48
79172;BMP280;68597;53.238;-1.418;2023-03-31T05:28:25;97619.75;;;11.52
79172;BMP280;68597;53.238;-1.418;2023-03-31T05:30:51;97617.81;;;11.55
79172;BMP280;68597;53.238;-1.418;2023-03-31T05:33:18;97601.91;;;11.46
79172;BMP280;68597;53.238;-1.418;2023-03-31T05:35:43;97615.03;;;11.55
79172;BMP280;68597;53.238;-1.418;2023-03-31T05:38:09;97603.38;;;11.47
79172;BMP280;68597;53.238;-1.418;2023-03-31T05:40:34;97605.06;;;11.52
79172;BMP280;68597;53.238;-1.418;2023-03-31T05:43:00;97615.84;;;11.58
79172;BMP280;68597;53.238;-1.418;2023-03-31T05:45:25;97608.94;;;11.59
79172;BMP280;68597;53.238;-1.418;2023-03-31T05:47:51;97608.22;;;11.58
79172;BMP280;68597;53.238;-1.418;2023-03-31T05:50:18;97603.34;;;11.59
79172;BMP280;68597;53.238;-1.418;2023-03-31T05:52:43;97605.56;;;11.60
79172;BMP280;68597;53.238;-1.418;2023-03-31T05:55:09;97598.25;;;11.55
79172;BMP280;68597;53.238;-1.418;2023-03-31T05:57:34;97579.72;;;11.48
79172;BMP280;68597;53.238;-1.418;2023-03-31T06:00:00;97604.19;;;11.61
79172;BMP280;68597;53.238;-1.418;2023-03-31T06:02:25;97602.88;;;11.62
79172;BMP280;68597;53.238;-1.418;2023-03-31T06:04:51;97591.34;;;11.56
79172;BMP280;68597;53.238;-1.418;2023-03-31T06:07:18;97598.00;;;11.63
79172;BMP280;68597;53.238;-1.418;2023-03-31T06:09:44;97604.31;;;11.63
79172;BMP280;68597;53.238;-1.418;2023-03-31T06:12:09;97598.75;;;11.63
79172;BMP280;68597;53.238;-1.418;2023-03-31T06:14:35;97593.16;;;11.63
79172;BMP280;68597;53.238;-1.418;2023-03-31T06:17:00;97598.84;;;11.65
79172;BMP280;68597;53.238;-1.418;2023-03-31T06:19:26;97598.94;;;11.67
79172;BMP280;68597;53.238;-1.418;2023-03-31T06:21:51;97597.63;;;11.68
79172;BMP280;68597;53.238;-1.418;2023-03-31T06:24:18;97596.28;;;11.69
79172;BMP280;68597;53.238;-1.418;2023-03-31T06:26:44;97587.56;;;11.63
79172;BMP280;68597;53.238;-1.418;2023-03-31T06:29:09;97602.09;;;11.73
79172;BMP280;68597;53.238;-1.418;2023-03-31T06:31:35;97603.41;;;11.72
79172;BMP280;68597;53.238;-1.418;2023-03-31T06:34:00;97592.97;;;11.73
79172;BMP280;68597;53.238;-1.418;2023-03-31T06:36:26;97597.97;;;11.74
79172;BMP280;68597;53.238;-1.418;2023-03-31T06:38:52;97596.75;;;11.77
79172;BMP280;68597;53.238;-1.418;2023-03-31T06:41:20;97591.19;;;11.77
79172;BMP280;68597;53.238;-1.418;2023-03-31T06:43:45;97594.03;;;11.79
79172;BMP280;68597;53.238;-1.418;2023-03-31T06:46:11;97573.94;;;11.69
79172;BMP280;68597;53.238;-1.418;2023-03-31T06:48:37;97588.72;;;11.83
79172;BMP280;68597;53.238;-1.418;2023-03-31T06:51:03;97586.75;;;11.86
79172;BMP280;68597;53.238;-1.418;2023-03-31T06:53:29;97593.06;;;11.86
79172;BMP280;68597;53.238;-1.418;2023-03-31T06:55:55;97590.41;;;11.88
79172;BMP280;68597;53.238;-1.418;2023-03-31T06:58:23;97591.97;;;11.91
79172;BMP280;68597;53.238;-1.418;2023-03-31T07:00:49;97586.47;;;11.93
79172;BMP280;68597;53.238;-1.418;2023-03-31T07:03:15;97586.69;;;11.97
79172;BMP280;68597;53.238;-1.418;2023-03-31T07:05:40;97589.63;;;11.99
79172;BMP280;68597;53.238;-1.418;2023-03-31T07:08:06;97584.97;;;12.04
79172;BMP280;68597;53.238;-1.418;2023-03-31T07:10:32;97574.06;;;11.96
79172;BMP280;68597;53.238;-1.418;2023-03-31T07:12:58;97595.16;;;12.11
79172;BMP280;68597;53.238;-1.418;2023-03-31T07:15:25;97593.22;;;12.14
79172;BMP280;68597;53.238;-1.418;2023-03-31T07:17:50;97589.06;;;12.15
79172;BMP280;68597;53.238;-1.418;2023-03-31T07:20:17;97584.72;;;12.12
79172;BMP280;68597;53.238;-1.418;2023-03-31T07:22:44;97589.91;;;12.17
79172;BMP280;68597;53.238;-1.418;2023-03-31T07:25:12;97600.59;;;12.21
79172;BMP280;68597;53.238;-1.418;2023-03-31T07:27:38;97577.97;;;12.17
79172;BMP280;68597;53.238;-1.418;2023-03-31T07:30:05;97590.97;;;12.24
79172;BMP280;68597;53.238;-1.418;2023-03-31T07:32:32;97580.00;;;12.28
79172;BMP280;68597;53.238;-1.418;2023-03-31T07:34:58;97588.50;;;12.30
79172;BMP280;68597;53.238;-1.418;2023-03-31T07:37:24;97578.78;;;12.31
79172;BMP280;68597;53.238;-1.418;2023-03-31T07:39:49;97579.88;;;12.26
79172;BMP280;68597;53.238;-1.418;2023-03-31T07:42:15;97591.84;;;12.40
79172;BMP280;68597;53.238;-1.418;2023-03-31T07:44:40;97582.31;;;12.45
79172;BMP280;68597;53.238;-1.418;2023-03-31T07:47:06;97593.97;;;12.53
79172;BMP280;68597;53.238;-1.418;2023-03-31T07:49:34;97583.22;;;12.61
79172;BMP280;68597;53.238;-1.418;2023-03-31T07:52:00;97589.00;;;12.65
79172;BMP280;68597;53.238;-1.418;2023-03-31T07:54:26;97587.03;;;12.68
79172;BMP280;68597;53.238;-1.418;2023-03-31T07:56:52;97594.31;;;12.73
79172;BMP280;68597;53.238;-1.418;2023-03-31T07:59:17;97588.00;;;12.72
79172;BMP280;68597;53.238;-1.418;2023-03-31T08:01:43;97591.03;;;12.76
79172;BMP280;68597;53.238;-1.418;2023-03-31T08:04:09;97593.81;;;12.76
79172;BMP280;68597;53.238;-1.418;2023-03-31T08:06:38;97598.47;;;12.85
79172;BMP280;68597;53.238;-1.418;2023-03-31T08:09:04;97591.66;;;12.88
79172;BMP280;68597;53.238;-1.418;2023-03-31T08:11:30;97595.91;;;12.89
79172;BMP280;68597;53.238;-1.418;2023-03-31T08:13:56;97600.06;;;12.88
79172;BMP280;68597;53.238;-1.418;2023-03-31T08:16:21;97598.09;;;12.91
79172;BMP280;68597;53.238;-1.418;2023-03-31T08:18:47;97595.97;;;12.91
79172;BMP280;68597;53.238;-1.418;2023-03-31T08:21:12;97601.59;;;12.91
79172;BMP280;68597;53.238;-1.418;2023-03-31T08:23:39;97605.13;;;12.92
79172;BMP280;68597;53.238;-1.418;2023-03-31T08:26:10;97605.25;;;12.94
79172;BMP280;68597;53.238;-1.418;2023-03-31T08:28:36;97606.06;;;12.96
79172;BMP280;68597;53.238;-1.418;2023-03-31T08:31:03;97608.22;;;12.98
79172;BMP280;68597;53.238;-1.418;2023-03-31T08:33:28;97606.28;;;13.00
79172;BMP280;68597;53.238;-1.418;2023-03-31T08:35:54;97602.16;;;13.01
79172;BMP280;68597;53.238;-1.418;2023-03-31T08:38:19;97591.97;;;12.94
79172;BMP280;68597;53.238;-1.418;2023-03-31T08:40:46;97607.94;;;13.05
79172;BMP280;68597;53.238;-1.418;2023-03-31T08:43:16;97605.25;;;13.07
79172;BMP280;68597;53.238;-1.418;2023-03-31T08:45:45;97606.72;;;13.08
79172;BMP280;68597;53.238;-1.418;2023-03-31T08:48:19;97606.72;;;13.08
79172;BMP280;68597;53.238;-1.418;2023-03-31T08:50:49;97604.00;;;13.10
79172;BMP280;68597;53.238;-1.418;2023-03-31T08:53:20;97617.50;;;13.14
79172;BMP280;68597;53.238;-1.418;2023-03-31T08:55:51;97612.69;;;13.17
79172;BMP280;68597;53.238;-1.418;2023-03-31T08:58:26;97607.22;;;13.19
79172;BMP280;68597;53.238;-1.418;2023-03-31T09:00:54;97611.50;;;13.20
79172;BMP280;68597;53.238;-1.418;2023-03-31T09:03:26;97614.28;;;13.20
79172;BMP280;68597;53.238;-1.418;2023-03-31T09:05:58;97614.47;;;13.24
79172;BMP280;68597;53.238;-1.418;2023-03-31T09:08:32;97600.06;;;13.16
79172;BMP280;68597;53.238;-1.418;2023-03-31T09:11:07;97617.50;;;13.28
79172;BMP280;68597;53.238;-1.418;2023-03-31T09:14:05;97613.22;;;13.27
79172;BMP280;68597;53.238;-1.418;2023-03-31T09:16:34;97607.09;;;13.17
79172;BMP280;68597;53.238;-1.418;2023-03-31T09:19:02;97616.44;;;13.21
79172;BMP280;68597;53.238;-1.418;2023-03-31T09:21:30;97617.28;;;13.24
79172;BMP280;68597;53.238;-1.418;2023-03-31T09:23:59;97624.44;;;13.27
79172;BMP280;68597;53.238;-1.418;2023-03-31T09:26:34;97624.56;;;13.29
79172;BMP280;68597;53.238;-1.418;2023-03-31T09:29:03;97626.13;;;13.32
79172;BMP280;68597;53.238;-1.418;2023-03-31T09:31:30;97627.44;;;13.31
79172;BMP280;68597;53.238;-1.418;2023-03-31T09:34:00;97623.31;;;13.32
79172;BMP280;68597;53.238;-1.418;2023-03-31T09:36:26;97627.97;;;13.41
79172;BMP280;68597;53.238;-1.418;2023-03-31T09:38:51;97635.13;;;13.44
79172;BMP280;68597;53.238;-1.418;2023-03-31T09:41:17;97626.63;;;13.42
79172;BMP280;68597;53.238;-1.418;2023-03-31T09:43:45;97592.78;;;13.10
79172;BMP280;68597;53.238;-1.418;2023-03-31T09:46:15;97639.19;;;13.41
79172;BMP280;68597;53.238;-1.418;2023-03-31T09:48:49;97644.66;;;13.39
79172;BMP280;68597;53.238;-1.418;2023-03-31T09:51:19;97651.53;;;13.36
79172;BMP280;68597;53.238;-1.418;2023-03-31T09:53:47;97645.72;;;13.32
79172;BMP280;68597;53.238;-1.418;2023-03-31T09:56:31;97652.06;;;13.32
79172;BMP280;68597;53.238;-1.418;2023-03-31T09:59:01;97655.69;;;13.35
79172;BMP280;68597;53.238;-1.418;2023-03-31T10:01:27;97628.78;;;13.16
79172;BMP280;68597;53.238;-1.418;2023-03-31T10:03:54;97667.09;;;13.39
79172;BMP280;68597;53.238;-1.418;2023-03-31T10:06:22;97665.66;;;13.38
79172;BMP280;68597;53.238;-1.418;2023-03-31T10:08:50;97665.53;;;13.36
79172;BMP280;68597;53.238;-1.418;2023-03-31T10:11:18;97663.97;;;13.33
79172;BMP280;68597;53.238;-1.418;2023-03-31T10:13:46;97636.38;;;13.14
79172;BMP280;68597;53.238;-1.418;2023-03-31T10:16:20;97663.28;;;13.32
79172;BMP280;68597;53.238;-1.418;2023-03-31T10:18:46;97671.25;;;13.38
79172;BMP280;68597;53.238;-1.418;2023-03-31T10:21:20;97675.19;;;13.33
79172;BMP280;68597;53.238;-1.418;2023-03-31T10:23:47;97683.81;;;13.37
79172;BMP280;68597;53.238;-1.418;2023-03-31T10:26:16;97679.53;;;13.36
79172;BMP280;68597;53.238;-1.418;2023-03-31T10:28:42;97685.88;;;13.36
79172;BMP280;68597;53.238;-1.418;2023-03-31T10:31:08;97692.22;;;13.37
79172;BMP280;68597;53.238;-1.418;2023-03-31T10:33:38;97696.56;;;13.40
79172;BMP280;68597;53.238;-1.418;2023-03-31T10:36:07;97704.56;;;13.45
79172;BMP280;68597;53.238;-1.418;2023-03-31T10:38:34;97706.94;;;13.51
79172;BMP280;68597;53.238;-1.418;2023-03-31T10:41:01;97687.03;;;13.45
79172;BMP280;68597;53.238;-1.418;2023-03-31T10:43:28;97696.47;;;13.51
79172;BMP280;68597;53.238;-1.418;2023-03-31T10:45:56;97701.56;;;13.55
79172;BMP280;68597;53.238;-1.418;2023-03-31T10:48:24;97717.56;;;13.66
79172;BMP280;68597;53.238;-1.418;2023-03-31T10:50:52;97714.47;;;13.60
79172;BMP280;68597;53.238;-1.418;2023-03-31T10:53:18;97719.00;;;13.67
79172;BMP280;68597;53.238;-1.418;2023-03-31T10:55:52;97728.06;;;13.79
79172;BMP280;68597;53.238;-1.418;2023-03-31T10:58:30;97733.63;;;13.93
79172;BMP280;68597;53.238;-1.418;2023-03-31T11:01:06;97741.59;;;13.98
79172;BMP280;68597;53.238;-1.418;2023-03-31T11:03:55;97737.69;;;14.03
79172;BMP280;68597;53.238;-1.418;2023-03-31T11:06:27;97749.09;;;14.07
79172;BMP280;68597;53.238;-1.418;2023-03-31T11:09:03;97744.97;;;14.08
79172;BMP280;68597;53.238;-1.418;2023-03-31T11:11:36;97756.38;;;14.12
79172;BMP280;68597;53.238;-1.418;2023-03-31T11:14:07;97749.53;;;14.15
79172;BMP280;68597;53.238;-1.418;2023-03-31T11:16:42;97743.50;;;14.07
79172;BMP280;68597;53.238;-1.418;2023-03-31T11:19:21;97765.41;;;14.11
79172;BMP280;68597;53.238;-1.418;2023-03-31T11:21:56;97763.25;;;14.09
79172;BMP280;68597;53.238;-1.418;2023-03-31T11:24:45;97773.03;;;14.08
79172;BMP280;68597;53.238;-1.418;2023-03-31T11:27:28;97780.59;;;14.06
79172;BMP280;68597;53.238;-1.418;2023-03-31T11:30:00;97774.06;;;14.01
79172;BMP280;68597;53.238;-1.418;2023-03-31T11:32:43;97780.88;;;13.98
79172;BMP280;68597;53.238;-1.418;2023-03-31T11:35:30;97775.22;;;13.96
79172;BMP280;68597;53.238;-1.418;2023-03-31T11:38:13;97786.91;;;13.93
79172;BMP280;68597;53.238;-1.418;2023-03-31T11:40:52;97797.53;;;13.94
79172;BMP280;68597;53.238;-1.418;2023-03-31T11:43:25;97793.19;;;13.91
79172;BMP280;68597;53.238;-1.418;2023-03-31T11:45:55;97793.69;;;13.88
79172;BMP280;68597;53.238;-1.418;2023-03-31T11:48:31;97806.91;;;13.85
79172;BMP280;68597;53.238;-1.418;2023-03-31T11:50:58;97808.00;;;13.80
79172;BMP280;68597;53.238;-1.418;2023-03-31T11:53:29;97813.53;;;13.78
79172;BMP280;68597;53.238;-1.418;2023-03-31T11:55:56;97813.53;;;13.78
79172;BMP280;68597;53.238;-1.418;2023-03-31T11:58:26;97823.41;;;13.79
79172;BMP280;68597;53.238;-1.418;2023-03-31T12:00:56;97828.34;;;13.81
79172;BMP280;68597;53.238;-1.418;2023-03-31T12:03:30;97838.34;;;13.84
79172;BMP280;68597;53.238;-1.418;2023-03-31T12:06:01;97837.94;;;13.89
79172;BMP280;68597;53.238;-1.418;2023-03-31T12:08:32;97841.19;;;13.97
79172;BMP280;68597;53.238;-1.418;2023-03-31T12:11:01;97841.38;;;14.01
79172;BMP280;68597;53.238;-1.418;2023-03-31T12:13:38;97849.38;;;14.07
79172;BMP280;68597;53.238;-1.418;2023-03-31T12:16:09;97850.31;;;14.11
79172;BMP280;68597;53.238;-1.418;2023-03-31T12:18:40;97848.84;;;14.10
79172;BMP280;68597;53.238;-1.418;2023-03-31T12:21:08;97855.19;;;14.11
79172;BMP280;68597;53.238;-1.418;2023-03-31T12:23:39;97874.09;;;14.10
79172;BMP280;68597;53.238;-1.418;2023-03-31T12:26:16;97867.97;;;14.00
79172;BMP280;68597;53.238;-1.418;2023-03-31T12:28:45;97833.63;;;13.61
79172;BMP280;68597;53.238;-1.418;2023-03-31T12:31:16;97878.22;;;13.82
79172;BMP280;68597;53.238;-1.418;2023-03-31T12:33:48;97874.97;;;13.74
79172;BMP280;68597;53.238;-1.418;2023-03-31T12:36:25;97884.78;;;13.73
79172;BMP280;68597;53.238;-1.418;2023-03-31T12:39:05;97892.84;;;13.67
79172;BMP280;68597;53.238;-1.418;2023-03-31T12:41:41;97890.69;;;13.65
79172;BMP280;68597;53.238;-1.418;2023-03-31T12:44:28;97900.94;;;13.61
79172;BMP280;68597;53.238;-1.418;2023-03-31T12:47:18;97899.50;;;13.60
79172;BMP280;68597;53.238;-1.418;2023-03-31T12:49:56;97903.09;;;13.62
79172;BMP280;68597;53.238;-1.418;2023-03-31T12:52:31;97902.63;;;13.66
79172;BMP280;68597;53.238;-1.418;2023-03-31T12:55:22;97905.75;;;13.72
79172;BMP280;68597;53.238;-1.418;2023-03-31T12:57:51;97916.34;;;13.74
79172;BMP280;68597;53.238;-1.418;2023-03-31T13:00:22;97915.69;;;13.75
79172;BMP280;68597;53.238;-1.418;2023-03-31T13:02:49;97924.13;;;13.75
79172;BMP280;68597;53.238;-1.418;2023-03-31T13:05:43;97926.84;;;13.73
79172;BMP280;68597;53.238;-1.418;2023-03-31T13:08:09;97922.59;;;13.72
79172;BMP280;68597;53.238;-1.418;2023-03-31T13:10:53;97926.38;;;13.65
79172;BMP280;68597;53.238;-1.418;2023-03-31T13:13:20;97935.25;;;13.73
79172;BMP280;68597;53.238;-1.418;2023-03-31T13:15:49;97942.28;;;13.74
79172;BMP280;68597;53.238;-1.418;2023-03-31T13:18:18;97939.69;;;13.64
79172;BMP280;68597;53.238;-1.418;2023-03-31T13:20:45;97946.84;;;13.68
79172;BMP280;68597;53.238;-1.418;2023-03-31T13:23:18;97950.38;;;13.68
79172;BMP280;68597;53.238;-1.418;2023-03-31T13:25:46;97956.75;;;13.57
79172;BMP280;68597;53.238;-1.418;2023-03-31T13:28:32;97962.59;;;13.61
79172;BMP280;68597;53.238;-1.418;2023-03-31T13:30:58;97974.06;;;13.65
79172;BMP280;68597;53.238;-1.418;2023-03-31T13:33:29;97972.72;;;13.66
79172;BMP280;68597;53.238;-1.418;2023-03-31T13:39:05;97987.13;;;13.60
79172;BMP280;68597;53.238;-1.418;2023-03-31T13:41:42;97960.03;;;13.40
79172;BMP280;68597;53.238;-1.418;2023-03-31T13:47:42;97975.38;;;13.39
79172;BMP280;68597;53.238;-1.418;2023-03-31T13:50:34;98001.19;;;13.49
79172;BMP280;68597;53.238;-1.418;2023-03-31T13:53:08;97984.66;;;13.30
79172;BMP280;68597;53.238;-1.418;2023-03-31T14:04:44;98015.63;;;13.32
79172;BMP280;68597;53.238;-1.418;2023-03-31T14:07:17;98029.13;;;13.35
79172;BMP280;68597;53.238;-1.418;2023-03-31T14:09:45;98019.28;;;13.23
79172;BMP280;68597;53.238;-1.418;2023-03-31T14:12:22;98041.94;;;13.27
79172;BMP280;68597;53.238;-1.418;2023-03-31T14:14:53;98047.44;;;13.25
79172;BMP280;68597;53.238;-1.418;2023-03-31T14:17:20;98042.06;;;13.17
79172;BMP280;68597;53.238;-1.418;2023-03-31T14:20:00;98053.41;;;13.19
79172;BMP280;68597;53.238;-1.418;2023-03-31T14:22:43;98067.91;;;13.16
79172;BMP280;68597;53.238;-1.418;2023-03-31T14:25:16;98066.13;;;13.08
79172;BMP280;68597;53.238;-1.418;2023-03-31T14:27:53;98066.13;;;13.08
79172;BMP280;68597;53.238;-1.418;2023-03-31T14:30:27;98082.94;;;13.08
79172;BMP280;68597;53.238;-1.418;2023-03-31T14:33:03;98082.94;;;13.08
79172;BMP280;68597;53.238;-1.418;2023-03-31T14:35:36;98086.31;;;13.07
79172;BMP280;68597;53.238;-1.418;2023-03-31T14:38:05;98091.94;;;13.07